Moosonee Airport

Airport
ICAO code: 
CYMO
IATA Code: 
YMO
Summary
ICAO Region: 
NAM
Territory: 
Location: 
Moosonee, Ontario
Serving: 
St James Bay
Elevation: 
30 ft
Coordinates: 
Aerial View: 
51° 17' 23.946" N, 80° 36' 56.268" W
Metar
Observation
CYMO 271100Z AUTO 29008G16KT 9SM BKN047 M12/M14 A2997 RMK SLP150
Station
Moosonee, Ont.
Date/Time
2021-11-27 11:00:00
Wind direction
290°
Wind speed
08 kts
Lowest cloud amount
broken clouds
Temperature
-12°C
Dew point
-14°C
Humidity
84%
Weather condition
n/a

Description

Regional airport located 2 nm northeast of Moosonee, Ontario, Canada.

Climatology

Subarctic climate (Köppen climate classification Dfc) - long, usually very cold winters, and short, cool to mild summers.

Runways

Designator Length Width Surface Rops
14/32 1067 30 COM No/No
6/24 1219 30 ASP No/No
Airport map: 
Aerial View: 

Accidents and Serious Incidents at or in the vicinity of CYMO

SKYbrary Partners:

Safety knowledge contributed by: